sensor_id;sensor_type;location;lat;lon;timestamp;P1;durP1;ratioP1;P2;durP2;ratioP2
31298;SDS011;17927;52.350;13.402;2023-02-28T00:00:24;5.63;;;3.58;;
31298;SDS011;17927;52.350;13.402;2023-02-28T00:02:49;4.80;;;3.70;;
31298;SDS011;17927;52.350;13.402;2023-02-28T00:05:16;3.83;;;3.28;;
31298;SDS011;17927;52.350;13.402;2023-02-28T00:07:43;5.53;;;3.63;;
31298;SDS011;17927;52.350;13.402;2023-02-28T00:10:10;9.50;;;4.07;;
31298;SDS011;17927;52.350;13.402;2023-02-28T00:12:37;7.43;;;3.47;;
31298;SDS011;17927;52.350;13.402;2023-02-28T00:15:07;6.45;;;4.43;;
31298;SDS011;17927;52.350;13.402;2023-02-28T00:19:59;4.03;;;3.38;;
31298;SDS011;17927;52.350;13.402;2023-02-28T00:22:37;12.82;;;4.70;;
31298;SDS011;17927;52.350;13.402;2023-02-28T00:25:04;4.63;;;4.03;;
31298;SDS011;17927;52.350;13.402;2023-02-28T00:27:31;10.35;;;4.30;;
31298;SDS011;17927;52.350;13.402;2023-02-28T00:29:57;4.90;;;4.18;;
31298;SDS011;17927;52.350;13.402;2023-02-28T00:32:22;5.38;;;3.90;;
31298;SDS011;17927;52.350;13.402;2023-02-28T00:34:47;3.80;;;3.33;;
31298;SDS011;17927;52.350;13.402;2023-02-28T00:37:12;5.68;;;4.32;;
31298;SDS011;17927;52.350;13.402;2023-02-28T00:39:38;4.32;;;3.92;;
31298;SDS011;17927;52.350;13.402;2023-02-28T00:42:04;6.70;;;4.60;;
31298;SDS011;17927;52.350;13.402;2023-02-28T00:44:30;5.35;;;4.60;;
31298;SDS011;17927;52.350;13.402;2023-02-28T00:46:56;6.43;;;3.88;;
31298;SDS011;17927;52.350;13.402;2023-02-28T00:49:22;6.15;;;4.18;;
31298;SDS011;17927;52.350;13.402;2023-02-28T00:51:47;6.43;;;4.53;;
31298;SDS011;17927;52.350;13.402;2023-02-28T00:54:12;7.22;;;4.38;;
31298;SDS011;17927;52.350;13.402;2023-02-28T00:56:38;8.48;;;4.88;;
31298;SDS011;17927;52.350;13.402;2023-02-28T00:59:03;4.63;;;4.22;;
31298;SDS011;17927;52.350;13.402;2023-02-28T01:01:28;5.75;;;4.38;;
31298;SDS011;17927;52.350;13.402;2023-02-28T01:03:53;5.90;;;4.45;;
31298;SDS011;17927;52.350;13.402;2023-02-28T01:06:19;5.85;;;4.50;;
31298;SDS011;17927;52.350;13.402;2023-02-28T01:08:44;11.23;;;4.90;;
31298;SDS011;17927;52.350;13.402;2023-02-28T01:11:10;7.22;;;4.93;;
31298;SDS011;17927;52.350;13.402;2023-02-28T01:13:36;5.65;;;4.22;;
31298;SDS011;17927;52.350;13.402;2023-02-28T01:16:02;5.28;;;4.53;;
31298;SDS011;17927;52.350;13.402;2023-02-28T01:18:27;4.55;;;4.15;;
31298;SDS011;17927;52.350;13.402;2023-02-28T01:20:53;4.78;;;4.10;;
31298;SDS011;17927;52.350;13.402;2023-02-28T01:23:20;6.55;;;5.05;;
31298;SDS011;17927;52.350;13.402;2023-02-28T01:25:50;5.47;;;4.25;;
31298;SDS011;17927;52.350;13.402;2023-02-28T01:28:15;5.93;;;4.55;;
31298;SDS011;17927;52.350;13.402;2023-02-28T01:30:41;5.90;;;3.78;;
31298;SDS011;17927;52.350;13.402;2023-02-28T01:33:06;5.15;;;3.55;;
31298;SDS011;17927;52.350;13.402;2023-02-28T01:35:32;5.72;;;4.25;;
31298;SDS011;17927;52.350;13.402;2023-02-28T01:37:59;4.82;;;4.25;;
31298;SDS011;17927;52.350;13.402;2023-02-28T01:40:24;5.93;;;4.32;;
31298;SDS011;17927;52.350;13.402;2023-02-28T01:42:50;6.22;;;4.40;;
31298;SDS011;17927;52.350;13.402;2023-02-28T01:45:24;5.85;;;4.35;;
31298;SDS011;17927;52.350;13.402;2023-02-28T01:47:54;13.88;;;4.65;;
31298;SDS011;17927;52.350;13.402;2023-02-28T01:50:23;7.78;;;4.80;;
31298;SDS011;17927;52.350;13.402;2023-02-28T01:52:53;5.88;;;4.10;;
31298;SDS011;17927;52.350;13.402;2023-02-28T01:55:24;6.32;;;4.43;;
31298;SDS011;17927;52.350;13.402;2023-02-28T01:57:54;4.32;;;3.92;;
31298;SDS011;17927;52.350;13.402;2023-02-28T02:00:23;7.07;;;4.10;;
31298;SDS011;17927;52.350;13.402;2023-02-28T02:02:53;8.55;;;4.40;;
31298;SDS011;17927;52.350;13.402;2023-02-28T02:05:24;7.03;;;3.80;;
31298;SDS011;17927;52.350;13.402;2023-02-28T02:07:54;6.05;;;3.88;;
31298;SDS011;17927;52.350;13.402;2023-02-28T02:10:22;8.80;;;4.45;;
31298;SDS011;17927;52.350;13.402;2023-02-28T02:18:54;5.05;;;3.97;;
31298;SDS011;17927;52.350;13.402;2023-02-28T02:21:27;5.30;;;4.45;;
31298;SDS011;17927;52.350;13.402;2023-02-28T02:24:31;5.30;;;3.87;;
31298;SDS011;17927;52.350;13.402;2023-02-28T02:27:08;5.03;;;4.18;;
31298;SDS011;17927;52.350;13.402;2023-02-28T02:37:58;5.80;;;4.30;;
31298;SDS011;17927;52.350;13.402;2023-02-28T02:40:43;6.30;;;4.45;;
31298;SDS011;17927;52.350;13.402;2023-02-28T02:43:20;5.72;;;4.70;;
31298;SDS011;17927;52.350;13.402;2023-02-28T02:46:04;6.55;;;4.63;;
31298;SDS011;17927;52.350;13.402;2023-02-28T02:48:35;5.55;;;4.60;;
31298;SDS011;17927;52.350;13.402;2023-02-28T02:51:05;6.35;;;4.18;;
31298;SDS011;17927;52.350;13.402;2023-02-28T02:53:37;5.82;;;4.28;;
31298;SDS011;17927;52.350;13.402;2023-02-28T02:56:08;6.97;;;4.50;;
31298;SDS011;17927;52.350;13.402;2023-02-28T02:58:37;8.77;;;4.40;;
31298;SDS011;17927;52.350;13.402;2023-02-28T03:01:07;9.80;;;4.50;;
31298;SDS011;17927;52.350;13.402;2023-02-28T03:03:35;7.93;;;4.32;;
31298;SDS011;17927;52.350;13.402;2023-02-28T03:06:01;6.68;;;4.32;;
31298;SDS011;17927;52.350;13.402;2023-02-28T03:08:28;7.65;;;4.30;;
31298;SDS011;17927;52.350;13.402;2023-02-28T03:10:58;5.93;;;4.37;;
31298;SDS011;17927;52.350;13.402;2023-02-28T03:13:34;5.90;;;4.40;;
31298;SDS011;17927;52.350;13.402;2023-02-28T03:21:32;5.10;;;4.20;;
31298;SDS011;17927;52.350;13.402;2023-02-28T03:24:08;5.13;;;4.32;;
31298;SDS011;17927;52.350;13.402;2023-02-28T03:26:39;6.30;;;4.18;;
31298;SDS011;17927;52.350;13.402;2023-02-28T03:34:23;6.70;;;4.35;;
31298;SDS011;17927;52.350;13.402;2023-02-28T03:36:55;5.95;;;4.22;;
31298;SDS011;17927;52.350;13.402;2023-02-28T03:42:15;7.97;;;4.68;;
31298;SDS011;17927;52.350;13.402;2023-02-28T03:44:47;6.57;;;4.00;;
31298;SDS011;17927;52.350;13.402;2023-02-28T03:47:17;5.45;;;4.07;;
31298;SDS011;17927;52.350;13.402;2023-02-28T03:49:56;5.15;;;4.60;;
31298;SDS011;17927;52.350;13.402;2023-02-28T03:52:31;5.60;;;4.68;;
31298;SDS011;17927;52.350;13.402;2023-02-28T03:55:01;5.93;;;4.43;;
31298;SDS011;17927;52.350;13.402;2023-02-28T03:57:40;9.35;;;5.10;;
31298;SDS011;17927;52.350;13.402;2023-02-28T04:00:25;7.43;;;4.85;;
31298;SDS011;17927;52.350;13.402;2023-02-28T04:02:55;4.95;;;4.18;;
31298;SDS011;17927;52.350;13.402;2023-02-28T04:05:21;4.78;;;4.13;;
31298;SDS011;17927;52.350;13.402;2023-02-28T04:07:47;6.18;;;4.55;;
31298;SDS011;17927;52.350;13.402;2023-02-28T04:10:13;11.20;;;4.68;;
31298;SDS011;17927;52.350;13.402;2023-02-28T04:12:39;5.75;;;4.88;;
31298;SDS011;17927;52.350;13.402;2023-02-28T04:15:05;7.78;;;4.82;;
31298;SDS011;17927;52.350;13.402;2023-02-28T04:17:30;6.65;;;4.80;;
31298;SDS011;17927;52.350;13.402;2023-02-28T04:19:56;9.20;;;5.25;;
31298;SDS011;17927;52.350;13.402;2023-02-28T04:22:22;5.30;;;4.80;;
31298;SDS011;17927;52.350;13.402;2023-02-28T04:24:47;4.90;;;4.45;;
31298;SDS011;17927;52.350;13.402;2023-02-28T04:27:12;9.23;;;4.75;;
31298;SDS011;17927;52.350;13.402;2023-02-28T04:29:37;6.28;;;4.28;;
31298;SDS011;17927;52.350;13.402;2023-02-28T04:32:03;6.13;;;4.28;;
31298;SDS011;17927;52.350;13.402;2023-02-28T04:34:30;6.82;;;4.22;;
31298;SDS011;17927;52.350;13.402;2023-02-28T04:36:56;11.40;;;5.72;;
31298;SDS011;17927;52.350;13.402;2023-02-28T04:39:22;8.70;;;5.30;;
31298;SDS011;17927;52.350;13.402;2023-02-28T04:41:49;9.30;;;5.40;;
31298;SDS011;17927;52.350;13.402;2023-02-28T04:44:15;8.32;;;6.18;;
31298;SDS011;17927;52.350;13.402;2023-02-28T04:46:41;6.53;;;5.18;;
31298;SDS011;17927;52.350;13.402;2023-02-28T04:49:06;8.88;;;5.63;;
31298;SDS011;17927;52.350;13.402;2023-02-28T04:51:33;8.70;;;5.10;;
31298;SDS011;17927;52.350;13.402;2023-02-28T04:53:59;9.70;;;5.35;;
31298;SDS011;17927;52.350;13.402;2023-02-28T04:56:24;9.10;;;4.72;;
31298;SDS011;17927;52.350;13.402;2023-02-28T04:58:49;7.20;;;5.50;;
31298;SDS011;17927;52.350;13.402;2023-02-28T05:01:24;7.65;;;5.40;;
31298;SDS011;17927;52.350;13.402;2023-02-28T05:03:52;9.80;;;5.28;;
31298;SDS011;17927;52.350;13.402;2023-02-28T05:06:19;9.45;;;5.57;;
31298;SDS011;17927;52.350;13.402;2023-02-28T05:08:46;7.00;;;5.35;;
31298;SDS011;17927;52.350;13.402;2023-02-28T05:11:14;9.07;;;5.57;;
31298;SDS011;17927;52.350;13.402;2023-02-28T05:13:42;8.35;;;4.78;;
31298;SDS011;17927;52.350;13.402;2023-02-28T05:16:08;8.20;;;5.30;;
31298;SDS011;17927;52.350;13.402;2023-02-28T05:18:36;8.05;;;5.50;;
31298;SDS011;17927;52.350;13.402;2023-02-28T05:21:02;6.85;;;5.30;;
31298;SDS011;17927;52.350;13.402;2023-02-28T05:23:28;6.65;;;5.07;;
31298;SDS011;17927;52.350;13.402;2023-02-28T05:25:53;9.10;;;5.28;;
31298;SDS011;17927;52.350;13.402;2023-02-28T05:28:19;7.88;;;5.35;;
31298;SDS011;17927;52.350;13.402;2023-02-28T05:30:44;6.40;;;5.43;;
31298;SDS011;17927;52.350;13.402;2023-02-28T05:33:10;9.70;;;5.63;;
31298;SDS011;17927;52.350;13.402;2023-02-28T05:35:37;12.80;;;5.35;;
31298;SDS011;17927;52.350;13.402;2023-02-28T05:38:04;8.90;;;4.93;;
31298;SDS011;17927;52.350;13.402;2023-02-28T05:40:29;10.63;;;5.40;;
31298;SDS011;17927;52.350;13.402;2023-02-28T05:42:55;10.35;;;4.72;;
31298;SDS011;17927;52.350;13.402;2023-02-28T05:45:20;9.98;;;4.95;;
31298;SDS011;17927;52.350;13.402;2023-02-28T05:47:45;8.68;;;5.50;;
31298;SDS011;17927;52.350;13.402;2023-02-28T05:50:10;10.38;;;5.70;;
31298;SDS011;17927;52.350;13.402;2023-02-28T05:52:36;8.85;;;5.65;;
31298;SDS011;17927;52.350;13.402;2023-02-28T05:55:02;7.28;;;5.57;;
31298;SDS011;17927;52.350;13.402;2023-02-28T05:57:28;9.90;;;6.05;;
31298;SDS011;17927;52.350;13.402;2023-02-28T05:59:53;15.55;;;6.50;;
31298;SDS011;17927;52.350;13.402;2023-02-28T06:02:18;5.22;;;4.72;;
31298;SDS011;17927;52.350;13.402;2023-02-28T06:04:43;13.05;;;5.80;;
31298;SDS011;17927;52.350;13.402;2023-02-28T06:07:09;8.73;;;5.35;;
31298;SDS011;17927;52.350;13.402;2023-02-28T06:09:35;7.88;;;5.75;;
31298;SDS011;17927;52.350;13.402;2023-02-28T06:12:01;10.88;;;5.60;;
31298;SDS011;17927;52.350;13.402;2023-02-28T06:14:32;10.07;;;6.00;;
31298;SDS011;17927;52.350;13.402;2023-02-28T06:16:59;11.82;;;5.30;;
31298;SDS011;17927;52.350;13.402;2023-02-28T06:19:25;13.23;;;6.10;;
31298;SDS011;17927;52.350;13.402;2023-02-28T06:21:51;11.82;;;6.47;;
31298;SDS011;17927;52.350;13.402;2023-02-28T06:24:18;12.43;;;6.78;;
31298;SDS011;17927;52.350;13.402;2023-02-28T06:26:44;13.57;;;7.18;;
31298;SDS011;17927;52.350;13.402;2023-02-28T06:29:10;10.35;;;6.65;;
31298;SDS011;17927;52.350;13.402;2023-02-28T06:31:35;12.88;;;8.13;;
31298;SDS011;17927;52.350;13.402;2023-02-28T06:34:00;42.28;;;21.05;;
31298;SDS011;17927;52.350;13.402;2023-02-28T06:36:26;31.15;;;16.30;;
31298;SDS011;17927;52.350;13.402;2023-02-28T06:38:51;22.88;;;12.57;;
31298;SDS011;17927;52.350;13.402;2023-02-28T06:41:19;42.22;;;20.35;;
31298;SDS011;17927;52.350;13.402;2023-02-28T06:43:46;114.70;;;44.35;;
31298;SDS011;17927;52.350;13.402;2023-02-28T06:46:12;95.55;;;38.83;;
31298;SDS011;17927;52.350;13.402;2023-02-28T06:48:38;81.60;;;33.40;;
31298;SDS011;17927;52.350;13.402;2023-02-28T06:51:08;40.85;;;20.90;;
31298;SDS011;17927;52.350;13.402;2023-02-28T06:53:38;26.85;;;11.60;;
31298;SDS011;17927;52.350;13.402;2023-02-28T06:56:04;16.83;;;9.70;;
31298;SDS011;17927;52.350;13.402;2023-02-28T06:58:31;13.15;;;8.10;;
31298;SDS011;17927;52.350;13.402;2023-02-28T07:00:56;18.02;;;10.25;;
31298;SDS011;17927;52.350;13.402;2023-02-28T07:03:21;15.45;;;9.10;;
31298;SDS011;17927;52.350;13.402;2023-02-28T07:05:48;20.50;;;10.20;;
31298;SDS011;17927;52.350;13.402;2023-02-28T07:08:13;19.02;;;7.82;;
31298;SDS011;17927;52.350;13.402;2023-02-28T07:10:39;17.35;;;9.35;;
31298;SDS011;17927;52.350;13.402;2023-02-28T07:13:04;11.18;;;8.23;;
31298;SDS011;17927;52.350;13.402;2023-02-28T07:15:30;11.88;;;8.82;;
31298;SDS011;17927;52.350;13.402;2023-02-28T07:17:56;17.58;;;8.98;;
31298;SDS011;17927;52.350;13.402;2023-02-28T07:20:21;12.80;;;8.23;;
31298;SDS011;17927;52.350;13.402;2023-02-28T07:22:47;16.33;;;8.15;;
31298;SDS011;17927;52.350;13.402;2023-02-28T07:25:20;12.60;;;7.60;;
31298;SDS011;17927;52.350;13.402;2023-02-28T07:27:45;8.45;;;6.75;;
31298;SDS011;17927;52.350;13.402;2023-02-28T07:30:11;10.20;;;6.03;;
31298;SDS011;17927;52.350;13.402;2023-02-28T07:32:37;12.75;;;6.68;;
31298;SDS011;17927;52.350;13.402;2023-02-28T07:35:04;13.60;;;8.43;;
31298;SDS011;17927;52.350;13.402;2023-02-28T07:37:29;9.48;;;6.80;;
31298;SDS011;17927;52.350;13.402;2023-02-28T07:39:56;10.52;;;6.85;;
31298;SDS011;17927;52.350;13.402;2023-02-28T07:42:21;7.88;;;6.00;;
31298;SDS011;17927;52.350;13.402;2023-02-28T07:44:47;15.00;;;6.55;;
31298;SDS011;17927;52.350;13.402;2023-02-28T07:47:12;24.23;;;6.07;;
31298;SDS011;17927;52.350;13.402;2023-02-28T07:49:37;17.80;;;5.47;;
31298;SDS011;17927;52.350;13.402;2023-02-28T07:52:03;12.82;;;5.13;;
31298;SDS011;17927;52.350;13.402;2023-02-28T07:54:30;12.45;;;4.78;;
31298;SDS011;17927;52.350;13.402;2023-02-28T07:56:55;7.80;;;4.20;;
31298;SDS011;17927;52.350;13.402;2023-02-28T07:59:20;7.32;;;3.88;;
31298;SDS011;17927;52.350;13.402;2023-02-28T08:01:45;5.05;;;3.97;;
31298;SDS011;17927;52.350;13.402;2023-02-28T08:04:11;10.60;;;5.47;;
31298;SDS011;17927;52.350;13.402;2023-02-28T08:06:36;11.82;;;5.78;;
31298;SDS011;17927;52.350;13.402;2023-02-28T08:09:01;7.25;;;5.35;;
31298;SDS011;17927;52.350;13.402;2023-02-28T08:11:27;8.40;;;5.22;;
31298;SDS011;17927;52.350;13.402;2023-02-28T08:13:52;6.50;;;4.75;;
31298;SDS011;17927;52.350;13.402;2023-02-28T08:16:19;8.02;;;4.13;;
31298;SDS011;17927;52.350;13.402;2023-02-28T08:18:47;5.80;;;5.07;;
31298;SDS011;17927;52.350;13.402;2023-02-28T08:21:15;4.82;;;4.30;;
31298;SDS011;17927;52.350;13.402;2023-02-28T08:23:41;6.00;;;4.80;;
31298;SDS011;17927;52.350;13.402;2023-02-28T08:26:06;7.50;;;4.70;;
31298;SDS011;17927;52.350;13.402;2023-02-28T08:28:31;4.75;;;4.20;;
31298;SDS011;17927;52.350;13.402;2023-02-28T08:30:57;8.30;;;4.40;;
31298;SDS011;17927;52.350;13.402;2023-02-28T08:33:23;6.35;;;4.07;;
31298;SDS011;17927;52.350;13.402;2023-02-28T08:35:51;4.00;;;3.35;;
31298;SDS011;17927;52.350;13.402;2023-02-28T08:38:18;6.88;;;3.95;;
31298;SDS011;17927;52.350;13.402;2023-02-28T08:40:43;6.93;;;4.93;;
31298;SDS011;17927;52.350;13.402;2023-02-28T08:43:08;7.88;;;4.60;;
31298;SDS011;17927;52.350;13.402;2023-02-28T08:45:34;13.20;;;6.95;;
31298;SDS011;17927;52.350;13.402;2023-02-28T08:47:59;6.63;;;3.78;;
31298;SDS011;17927;52.350;13.402;2023-02-28T08:50:24;8.73;;;4.47;;
31298;SDS011;17927;52.350;13.402;2023-02-28T08:52:49;5.65;;;3.60;;
31298;SDS011;17927;52.350;13.402;2023-02-28T08:55:14;5.18;;;3.00;;
31298;SDS011;17927;52.350;13.402;2023-02-28T08:57:40;4.32;;;3.78;;
31298;SDS011;17927;52.350;13.402;2023-02-28T09:00:05;11.77;;;3.92;;
31298;SDS011;17927;52.350;13.402;2023-02-28T09:02:32;5.20;;;3.42;;
31298;SDS011;17927;52.350;13.402;2023-02-28T09:04:57;5.00;;;3.65;;
31298;SDS011;17927;52.350;13.402;2023-02-28T09:07:23;5.68;;;3.60;;
31298;SDS011;17927;52.350;13.402;2023-02-28T09:09:49;9.43;;;3.70;;
31298;SDS011;17927;52.350;13.402;2023-02-28T09:12:21;7.47;;;3.10;;
31298;SDS011;17927;52.350;13.402;2023-02-28T09:14:47;3.95;;;2.90;;
31298;SDS011;17927;52.350;13.402;2023-02-28T09:17:12;5.80;;;2.55;;
31298;SDS011;17927;52.350;13.402;2023-02-28T09:19:37;4.53;;;2.95;;
31298;SDS011;17927;52.350;13.402;2023-02-28T09:22:02;3.08;;;2.83;;
31298;SDS011;17927;52.350;13.402;2023-02-28T09:24:27;4.00;;;2.67;;
31298;SDS011;17927;52.350;13.402;2023-02-28T09:26:53;2.88;;;2.53;;
31298;SDS011;17927;52.350;13.402;2023-02-28T09:29:18;4.93;;;2.60;;
31298;SDS011;17927;52.350;13.402;2023-02-28T09:31:43;4.88;;;2.78;;
31298;SDS011;17927;52.350;13.402;2023-02-28T09:34:09;4.00;;;3.05;;
31298;SDS011;17927;52.350;13.402;2023-02-28T09:36:35;3.47;;;2.60;;
31298;SDS011;17927;52.350;13.402;2023-02-28T09:39:02;2.55;;;2.35;;
31298;SDS011;17927;52.350;13.402;2023-02-28T09:41:28;2.67;;;2.28;;
31298;SDS011;17927;52.350;13.402;2023-02-28T09:44:04;5.38;;;2.47;;
31298;SDS011;17927;52.350;13.402;2023-02-28T09:46:34;5.15;;;2.20;;
31298;SDS011;17927;52.350;13.402;2023-02-28T09:49:06;3.10;;;2.03;;
31298;SDS011;17927;52.350;13.402;2023-02-28T09:51:42;3.80;;;2.45;;
31298;SDS011;17927;52.350;13.402;2023-02-28T09:54:15;3.53;;;2.05;;
31298;SDS011;17927;52.350;13.402;2023-02-28T09:56:44;2.97;;;2.13;;
31298;SDS011;17927;52.350;13.402;2023-02-28T09:59:17;2.07;;;1.97;;
31298;SDS011;17927;52.350;13.402;2023-02-28T10:01:58;2.92;;;1.70;;
31298;SDS011;17927;52.350;13.402;2023-02-28T10:04:50;5.45;;;1.45;;
31298;SDS011;17927;52.350;13.402;2023-02-28T10:12:29;1.80;;;1.50;;
31298;SDS011;17927;52.350;13.402;2023-02-28T10:14:57;6.88;;;1.30;;
31298;SDS011;17927;52.350;13.402;2023-02-28T10:17:28;3.10;;;1.23;;
31298;SDS011;17927;52.350;13.402;2023-02-28T10:25:41;1.67;;;1.10;;
31298;SDS011;17927;52.350;13.402;2023-02-28T10:28:14;2.42;;;1.30;;
31298;SDS011;17927;52.350;13.402;2023-02-28T10:30:44;1.20;;;1.10;;
31298;SDS011;17927;52.350;13.402;2023-02-28T10:33:31;1.20;;;1.02;;
31298;SDS011;17927;52.350;13.402;2023-02-28T10:35:59;1.58;;;1.10;;
31298;SDS011;17927;52.350;13.402;2023-02-28T10:38:26;1.50;;;1.40;;
31298;SDS011;17927;52.350;13.402;2023-02-28T10:41:03;1.88;;;1.20;;
31298;SDS011;17927;52.350;13.402;2023-02-28T10:43:34;1.30;;;1.05;;
31298;SDS011;17927;52.350;13.402;2023-02-28T10:46:02;1.40;;;1.27;;
31298;SDS011;17927;52.350;13.402;2023-02-28T10:48:36;7.20;;;1.60;;
31298;SDS011;17927;52.350;13.402;2023-02-28T10:51:03;1.65;;;1.33;;
31298;SDS011;17927;52.350;13.402;2023-02-28T10:53:34;2.10;;;1.70;;
31298;SDS011;17927;52.350;13.402;2023-02-28T10:56:05;1.60;;;1.20;;
31298;SDS011;17927;52.350;13.402;2023-02-28T10:58:53;1.83;;;1.40;;
31298;SDS011;17927;52.350;13.402;2023-02-28T11:01:38;1.75;;;1.52;;
31298;SDS011;17927;52.350;13.402;2023-02-28T11:09:44;1.40;;;1.30;;
31298;SDS011;17927;52.350;13.402;2023-02-28T11:12:19;3.25;;;1.58;;
31298;SDS011;17927;52.350;13.402;2023-02-28T11:14:47;1.50;;;1.40;;
31298;SDS011;17927;52.350;13.402;2023-02-28T11:17:23;2.25;;;1.52;;
31298;SDS011;17927;52.350;13.402;2023-02-28T11:19:51;3.60;;;1.58;;
31298;SDS011;17927;52.350;13.402;2023-02-28T11:22:20;1.67;;;1.58;;
31298;SDS011;17927;52.350;13.402;2023-02-28T11:24:49;2.45;;;1.98;;
31298;SDS011;17927;52.350;13.402;2023-02-28T11:27:53;3.10;;;1.50;;
31298;SDS011;17927;52.350;13.402;2023-02-28T11:30:23;1.65;;;1.42;;
31298;SDS011;17927;52.350;13.402;2023-02-28T11:32:49;1.58;;;1.42;;
31298;SDS011;17927;52.350;13.402;2023-02-28T11:35:17;2.70;;;1.92;;
31298;SDS011;17927;52.350;13.402;2023-02-28T11:37:51;1.73;;;1.60;;
31298;SDS011;17927;52.350;13.402;2023-02-28T11:40:18;2.50;;;1.65;;
31298;SDS011;17927;52.350;13.402;2023-02-28T11:51:45;2.45;;;1.80;;
31298;SDS011;17927;52.350;13.402;2023-02-28T11:57:14;2.28;;;1.52;;
31298;SDS011;17927;52.350;13.402;2023-02-28T12:08:14;2.42;;;1.65;;
31298;SDS011;17927;52.350;13.402;2023-02-28T12:22:35;1.55;;;1.45;;
31298;SDS011;17927;52.350;13.402;2023-02-28T12:25:20;4.00;;;1.55;;
31298;SDS011;17927;52.350;13.402;2023-02-28T12:27:57;3.15;;;1.80;;
31298;SDS011;17927;52.350;13.402;2023-02-28T12:30:27;1.70;;;1.60;;
31298;SDS011;17927;52.350;13.402;2023-02-28T12:32:58;2.53;;;2.00;;
31298;SDS011;17927;52.350;13.402;2023-02-28T12:35:33;2.72;;;2.03;;
31298;SDS011;17927;52.350;13.402;2023-02-28T12:38:08;2.13;;;1.90;;
31298;SDS011;17927;52.350;13.402;2023-02-28T12:40:45;3.58;;;1.90;;
31298;SDS011;17927;52.350;13.402;2023-02-28T12:43:16;1.88;;;1.73;;
31298;SDS011;17927;52.350;13.402;2023-02-28T12:45:47;3.65;;;1.70;;
31298;SDS011;17927;52.350;13.402;2023-02-28T12:49:00;3.63;;;2.20;;
31298;SDS011;17927;52.350;13.402;2023-02-28T12:53:42;2.47;;;1.95;;
31298;SDS011;17927;52.350;13.402;2023-02-28T12:58:46;2.25;;;1.90;;
31298;SDS011;17927;52.350;13.402;2023-02-28T13:01:27;2.13;;;1.70;;
31298;SDS011;17927;52.350;13.402;2023-02-28T13:04:21;2.33;;;2.13;;
31298;SDS011;17927;52.350;13.402;2023-02-28T13:07:05;2.78;;;2.17;;
31298;SDS011;17927;52.350;13.402;2023-02-28T13:09:53;2.30;;;2.10;;
31298;SDS011;17927;52.350;13.402;2023-02-28T13:12:21;3.03;;;2.42;;
31298;SDS011;17927;52.350;13.402;2023-02-28T13:14:48;3.53;;;2.55;;
31298;SDS011;17927;52.350;13.402;2023-02-28T13:17:19;7.40;;;2.25;;
31298;SDS011;17927;52.350;13.402;2023-02-28T13:22:35;3.22;;;1.92;;
31298;SDS011;17927;52.350;13.402;2023-02-28T13:25:49;2.30;;;2.08;;
31298;SDS011;17927;52.350;13.402;2023-02-28T13:28:12;2.28;;;2.10;;
31298;SDS011;17927;52.350;13.402;2023-02-28T13:36:23;2.53;;;1.95;;
31298;SDS011;17927;52.350;13.402;2023-02-28T13:38:50;2.60;;;2.30;;
31298;SDS011;17927;52.350;13.402;2023-02-28T13:46:31;3.38;;;2.00;;
31298;SDS011;17927;52.350;13.402;2023-02-28T13:49:17;1.83;;;1.73;;
31298;SDS011;17927;52.350;13.402;2023-02-28T13:51:47;2.25;;;2.05;;
31298;SDS011;17927;52.350;13.402;2023-02-28T13:59:18;2.15;;;1.92;;
31298;SDS011;17927;52.350;13.402;2023-02-28T14:01:53;2.00;;;1.77;;
31298;SDS011;17927;52.350;13.402;2023-02-28T14:04:45;1.85;;;1.75;;
31298;SDS011;17927;52.350;13.402;2023-02-28T14:07:22;4.10;;;2.05;;
31298;SDS011;17927;52.350;13.402;2023-02-28T14:09:54;3.00;;;2.03;;
31298;SDS011;17927;52.350;13.402;2023-02-28T14:15:36;2.75;;;2.17;;
31298;SDS011;17927;52.350;13.402;2023-02-28T14:18:32;2.63;;;2.15;;
31298;SDS011;17927;52.350;13.402;2023-02-28T14:21:03;2.40;;;2.20;;
31298;SDS011;17927;52.350;13.402;2023-02-28T14:26:53;3.15;;;2.67;;
31298;SDS011;17927;52.350;13.402;2023-02-28T14:29:36;2.60;;;2.15;;
31298;SDS011;17927;52.350;13.402;2023-02-28T14:34:52;2.33;;;2.13;;
31298;SDS011;17927;52.350;13.402;2023-02-28T14:37:26;4.75;;;2.50;;
31298;SDS011;17927;52.350;13.402;2023-02-28T14:39:55;2.25;;;2.05;;
31298;SDS011;17927;52.350;13.402;2023-02-28T14:42:27;2.63;;;2.28;;
31298;SDS011;17927;52.350;13.402;2023-02-28T14:44:55;2.33;;;2.22;;
31298;SDS011;17927;52.350;13.402;2023-02-28T14:47:25;3.45;;;2.70;;
31298;SDS011;17927;52.350;13.402;2023-02-28T14:49:55;2.35;;;2.03;;
31298;SDS011;17927;52.350;13.402;2023-02-28T14:52:22;5.25;;;2.38;;
31298;SDS011;17927;52.350;13.402;2023-02-28T14:54:56;5.68;;;3.42;;
31298;SDS011;17927;52.350;13.402;2023-02-28T14:57:31;2.83;;;2.28;;
31298;SDS011;17927;52.350;13.402;2023-02-28T15:00:24;2.75;;;2.47;;
31298;SDS011;17927;52.350;13.402;2023-02-28T15:02:51;2.95;;;2.33;;
31298;SDS011;17927;52.350;13.402;2023-02-28T15:05:31;2.97;;;2.47;;
31298;SDS011;17927;52.350;13.402;2023-02-28T15:08:11;3.05;;;2.75;;
31298;SDS011;17927;52.350;13.402;2023-02-28T15:10:39;2.90;;;2.60;;
31298;SDS011;17927;52.350;13.402;2023-02-28T15:13:09;3.63;;;2.20;;
31298;SDS011;17927;52.350;13.402;2023-02-28T15:15:42;5.57;;;2.80;;
31298;SDS011;17927;52.350;13.402;2023-02-28T15:18:31;2.95;;;2.65;;
31298;SDS011;17927;52.350;13.402;2023-02-28T15:21:12;3.75;;;2.78;;
31298;SDS011;17927;52.350;13.402;2023-02-28T15:26:10;4.18;;;2.85;;
31298;SDS011;17927;52.350;13.402;2023-02-28T15:28:41;2.60;;;2.40;;
31298;SDS011;17927;52.350;13.402;2023-02-28T15:31:18;5.40;;;2.45;;
31298;SDS011;17927;52.350;13.402;2023-02-28T15:33:53;4.22;;;3.10;;
31298;SDS011;17927;52.350;13.402;2023-02-28T15:36:20;6.97;;;3.60;;
31298;SDS011;17927;52.350;13.402;2023-02-28T15:38:52;3.63;;;2.58;;
31298;SDS011;17927;52.350;13.402;2023-02-28T15:41:37;3.72;;;3.13;;
31298;SDS011;17927;52.350;13.402;2023-02-28T15:46:56;6.07;;;3.78;;
31298;SDS011;17927;52.350;13.402;2023-02-28T15:49:26;3.40;;;2.80;;
31298;SDS011;17927;52.350;13.402;2023-02-28T15:51:53;5.80;;;2.92;;
31298;SDS011;17927;52.350;13.402;2023-02-28T15:54:24;3.25;;;2.92;;
31298;SDS011;17927;52.350;13.402;2023-02-28T15:56:57;3.58;;;3.10;;
31298;SDS011;17927;52.350;13.402;2023-02-28T15:59:29;4.45;;;3.70;;
31298;SDS011;17927;52.350;13.402;2023-02-28T16:02:15;4.35;;;3.35;;
31298;SDS011;17927;52.350;13.402;2023-02-28T16:07:25;4.63;;;2.92;;
31298;SDS011;17927;52.350;13.402;2023-02-28T16:09:51;4.55;;;3.22;;
31298;SDS011;17927;52.350;13.402;2023-02-28T16:12:17;7.35;;;4.53;;
31298;SDS011;17927;52.350;13.402;2023-02-28T16:14:43;9.15;;;3.83;;
31298;SDS011;17927;52.350;13.402;2023-02-28T16:17:20;7.47;;;3.53;;
31298;SDS011;17927;52.350;13.402;2023-02-28T16:19:49;6.55;;;3.50;;
31298;SDS011;17927;52.350;13.402;2023-02-28T16:22:14;4.15;;;2.95;;
31298;SDS011;17927;52.350;13.402;2023-02-28T16:24:40;4.10;;;2.90;;
31298;SDS011;17927;52.350;13.402;2023-02-28T16:27:05;4.68;;;2.88;;
31298;SDS011;17927;52.350;13.402;2023-02-28T16:29:32;4.55;;;3.35;;
31298;SDS011;17927;52.350;13.402;2023-02-28T16:32:00;6.72;;;4.07;;
31298;SDS011;17927;52.350;13.402;2023-02-28T16:34:26;4.70;;;3.80;;
31298;SDS011;17927;52.350;13.402;2023-02-28T16:36:52;5.15;;;3.75;;
31298;SDS011;17927;52.350;13.402;2023-02-28T16:39:17;6.30;;;4.10;;
31298;SDS011;17927;52.350;13.402;2023-02-28T16:41:45;5.45;;;4.22;;
31298;SDS011;17927;52.350;13.402;2023-02-28T16:44:14;9.15;;;3.70;;